Time;durP1;ratioP1;P1;durP2;ratioP2;P2;SDS_P1;SDS_P2;PMS_P1;PMS_P2;Temp;Humidity;BMP_temperature;BMP_pressure;BME280_temperature;BME280_humidity;BME280_pressure;Samples;Min_cycle;Max_cycle;Signal;HPM_P1;HPM_P2
2022/06/20 00:02:00;;;;;;;11.98;6.43;;;19.60;71.20;;;;;;5041116;28;20030;-88
2022/06/20 00:04:26;;;;;;;13.95;7.25;;;19.60;71.10;;;;;;5036802;28;20022;-87
2022/06/20 00:06:51;;;;;;;18.45;7.97;;;19.60;71.20;;;;;;5037893;28;20166;-89
2022/06/20 00:09:17;;;;;;;11.32;6.65;;;19.60;71.20;;;;;;5036259;28;20589;-88
2022/06/20 00:11:45;;;;;;;14.18;7.28;;;19.60;71.10;;;;;;5037278;28;20095;-89
2022/06/20 00:14:18;;;;;;;14.10;7.47;;;19.60;71.00;;;;;;5036929;28;20068;-88
2022/06/20 00:16:45;;;;;;;13.73;6.88;;;19.50;71.20;;;;;;5035417;28;20033;-88
2022/06/20 00:19:10;;;;;;;15.95;7.95;;;19.50;71.10;;;;;;5035772;28;20033;-90
2022/06/20 00:21:37;;;;;;;11.10;6.70;;;19.50;71.00;;;;;;5035829;28;20029;-89
2022/06/20 00:24:06;;;;;;;12.55;7.15;;;19.50;71.10;;;;;;5036790;28;20691;-88
2022/06/20 00:26:32;;;;;;;12.52;7.03;;;19.50;71.20;;;;;;5036799;28;20087;-89
2022/06/20 00:28:57;;;;;;;16.48;7.70;;;19.40;71.50;;;;;;5035420;28;20037;-89
2022/06/20 00:31:23;;;;;;;12.00;7.20;;;19.30;71.60;;;;;;5036105;28;20518;-88
2022/06/20 00:33:50;;;;;;;17.75;8.00;;;19.30;71.60;;;;;;5035528;28;20034;-89
2022/06/20 00:36:16;;;;;;;13.23;7.03;;;19.30;71.70;;;;;;5035076;28;20801;-88
2022/06/20 00:38:43;;;;;;;14.18;7.38;;;19.30;71.80;;;;;;5036655;28;20025;-88
2022/06/20 00:41:17;;;;;;;13.45;7.65;;;19.30;71.80;;;;;;5036181;28;20049;-89
2022/06/20 00:43:47;;;;;;;19.35;8.02;;;19.20;72.10;;;;;;5035039;28;20033;-88
2022/06/20 00:46:33;;;;;;;;;;;;;;;;;;;;;
2022/06/20 00:49:07;;;;;;;13.68;8.38;;;19.10;72.40;;;;;;5036638;28;20037;-88
2022/06/20 00:52:16;;;;;;;17.55;8.52;;;19.10;72.30;;;;;;5035463;28;20032;-88
2022/06/20 00:55:02;;;;;;;13.57;8.77;;;19.10;72.10;;;;;;5034696;28;20034;-87
2022/06/20 00:57:52;;;;;;;;;;;;;;;;;;;;;
2022/06/20 01:00:25;;;;;;;16.23;8.25;;;19.10;72.20;;;;;;5036180;28;20035;-88
2022/06/20 01:03:03;;;;;;;18.10;8.55;;;19.10;72.00;;;;;;5036224;28;20500;-89
2022/06/20 01:05:47;;;;;;;18.83;8.82;;;19.10;72.00;;;;;;5036166;28;20029;-88
2022/06/20 01:08:19;;;;;;;14.40;8.07;;;19.10;71.50;;;;;;5034820;28;20026;-88
2022/06/20 01:11:03;;;;;;;15.95;8.88;;;19.00;72.40;;;;;;5034473;28;20396;-88
2022/06/20 01:13:30;;;;;;;15.32;8.25;;;18.80;72.90;;;;;;5033929;28;20064;-88
2022/06/20 01:16:25;;;;;;;24.27;9.15;;;18.80;72.80;;;;;;5034603;28;20039;-89
2022/06/20 01:18:52;;;;;;;12.32;9.38;;;18.80;73.10;;;;;;5034410;28;20047;-88
2022/06/20 01:21:34;;;;;;;13.73;8.60;;;18.80;72.80;;;;;;5034908;28;20029;-88
2022/06/20 01:24:06;;;;;;;16.33;8.85;;;18.80;72.30;;;;;;5034542;28;20029;-88
2022/06/20 01:27:30;;;;;;;12.68;8.48;;;18.80;72.50;;;;;;5035703;28;20029;-88
2022/06/20 01:29:56;;;;;;;19.27;9.63;;;18.80;72.50;;;;;;5018871;28;20049;-88
2022/06/20 01:32:21;;;;;;;16.92;8.98;;;18.80;72.40;;;;;;5035903;28;20113;-89
2022/06/20 01:34:48;;;;;;;16.45;9.00;;;18.80;72.20;;;;;;5034413;28;20053;-89
2022/06/20 01:37:25;;;;;;;15.00;9.63;;;18.80;73.20;;;;;;5041509;28;20036;-89
2022/06/20 01:39:59;;;;;;;18.50;10.32;;;18.80;73.10;;;;;;5054794;28;20622;-89
2022/06/20 01:42:28;;;;;;;14.48;8.80;;;18.80;73.10;;;;;;5052538;28;20032;-88
2022/06/20 01:45:57;;;;;;;19.00;10.02;;;18.80;73.10;;;;;;5034626;28;20029;-88
2022/06/20 01:48:03;;;;;;;14.30;9.55;;;18.80;72.80;;;;;;5034959;28;20085;-88
2022/06/20 01:50:32;;;;;;;18.27;10.40;;;18.80;73.10;;;;;;5045058;28;20036;-88
2022/06/20 01:53:03;;;;;;;22.63;10.85;;;18.80;73.00;;;;;;5055165;28;20116;-88
2022/06/20 01:55:31;;;;;;;12.50;9.77;;;18.80;72.90;;;;;;5054363;28;20021;-89
2022/06/20 01:58:06;;;;;;;21.25;11.10;;;18.80;73.00;;;;;;5043714;28;20104;-89
2022/06/20 02:00:36;;;;;;;18.40;9.85;;;18.70;73.50;;;;;;5055214;28;20025;-89
2022/06/20 02:03:07;;;;;;;20.50;11.10;;;18.80;73.00;;;;;;5054029;28;20024;-88
2022/06/20 02:05:34;;;;;;;17.77;10.98;;;18.80;73.10;;;;;;5051330;28;20303;-88
2022/06/20 02:08:06;;;;;;;20.85;10.55;;;18.80;73.20;;;;;;5033630;28;20025;-88
2022/06/20 02:10:41;;;;;;;18.10;10.20;;;18.80;73.00;;;;;;5033697;28;20133;-88
2022/06/20 02:13:08;;;;;;;19.98;10.68;;;18.80;73.40;;;;;;5033730;28;20021;-89
2022/06/20 02:15:34;;;;;;;20.15;10.02;;;18.80;73.80;;;;;;5034957;28;20915;-88
2022/06/20 02:18:05;;;;;;;22.48;11.75;;;18.70;74.60;;;;;;5044980;28;20072;-89
2022/06/20 02:20:38;;;;;;;17.98;10.98;;;18.70;74.30;;;;;;5035180;28;20048;-88
2022/06/20 02:23:19;;;;;;;;;;;;;;;;;;;;;
2022/06/20 02:25:48;;;;;;;16.77;10.40;;;18.70;74.30;;;;;;5034949;28;20376;-88
2022/06/20 02:28:28;;;;;;;20.67;11.38;;;18.80;74.00;;;;;;5034885;28;20033;-87
2022/06/20 02:30:53;;;;;;;15.40;10.37;;;18.80;73.60;;;;;;5035112;28;20553;-89
2022/06/20 02:33:25;;;;;;;14.80;10.27;;;18.80;73.30;;;;;;5034986;28;20037;-89
2022/06/20 02:35:53;;;;;;;20.25;10.65;;;18.90;73.00;;;;;;5043542;28;20469;-88
2022/06/20 02:38:20;;;;;;;19.17;12.02;;;18.90;73.10;;;;;;5053821;28;20109;-88
2022/06/20 02:40:50;;;;;;;22.00;11.02;;;18.90;73.20;;;;;;5053691;28;20135;-88
2022/06/20 02:43:20;;;;;;;22.42;12.18;;;18.90;73.30;;;;;;5038759;28;20373;-88
2022/06/20 02:45:47;;;;;;;20.83;11.60;;;18.80;73.80;;;;;;5034301;28;20032;-88
2022/06/20 02:48:15;;;;;;;28.48;13.13;;;18.80;73.70;;;;;;5035056;28;20122;-89
2022/06/20 02:50:54;;;;;;;26.25;13.43;;;18.80;73.60;;;;;;5034898;28;20022;-88
2022/06/20 02:53:31;;;;;;;23.05;12.18;;;18.90;73.30;;;;;;5033328;28;20048;-88
2022/06/20 02:55:58;;;;;;;23.60;12.35;;;18.90;73.50;;;;;;5033444;28;20041;-88
2022/06/20 02:58:28;;;;;;;20.58;13.00;;;18.80;73.90;;;;;;5037751;28;20106;-88
2022/06/20 03:01:04;;;;;;;24.13;13.20;;;18.90;73.80;;;;;;5052429;28;20103;-89
2022/06/20 03:03:44;;;;;;;28.50;13.85;;;18.80;74.10;;;;;;5053524;28;20463;-88
2022/06/20 03:06:18;;;;;;;26.95;13.52;;;18.80;74.20;;;;;;5054612;28;20025;-88
2022/06/20 03:08:55;;;;;;;28.63;13.57;;;18.80;74.30;;;;;;5037043;28;20036;-88
2022/06/20 03:11:23;;;;;;;24.23;12.48;;;18.80;74.20;;;;;;5038541;28;20033;-89
2022/06/20 03:13:50;;;;;;;21.58;12.65;;;18.80;74.50;;;;;;5036785;28;20029;-89
2022/06/20 03:16:17;;;;;;;19.38;12.43;;;18.80;74.40;;;;;;5036448;28;20025;-88
2022/06/20 03:18:49;;;;;;;30.63;15.30;;;18.80;74.40;;;;;;5037642;28;20021;-89
2022/06/20 03:21:17;;;;;;;23.35;12.52;;;18.70;74.90;;;;;;5037082;28;20031;-89
2022/06/20 03:23:43;;;;;;;31.88;14.13;;;18.70;74.90;;;;;;5036787;28;20025;-88
2022/06/20 03:26:18;;;;;;;21.25;12.18;;;18.70;74.90;;;;;;5036794;28;20032;-88
2022/06/20 03:28:44;;;;;;;26.30;13.57;;;18.60;74.40;;;;;;5037659;28;20448;-88
2022/06/20 03:31:10;;;;;;;26.02;13.70;;;18.60;74.70;;;;;;5038015;28;20026;-87
2022/06/20 03:33:37;;;;;;;31.50;14.75;;;18.50;75.30;;;;;;5036626;28;20052;-88
2022/06/20 03:36:25;;;;;;;30.55;14.70;;;18.60;75.20;;;;;;5036554;28;20017;-89
2022/06/20 03:38:51;;;;;;;22.20;13.90;;;18.70;74.60;;;;;;5037844;28;20053;-89
2022/06/20 03:41:21;;;;;;;29.88;14.13;;;18.70;74.60;;;;;;5036691;28;20030;-89
2022/06/20 03:44:07;;;;;;;29.40;14.27;;;18.80;73.90;;;;;;5037657;28;20064;-88
2022/06/20 03:47:07;;;;;;;23.15;12.48;;;18.80;74.60;;;;;;5042048;28;20554;-88
2022/06/20 03:49:39;;;;;;;22.95;12.55;;;18.80;74.50;;;;;;5048254;28;20037;-88
2022/06/20 03:52:12;;;;;;;23.83;11.93;;;18.90;74.20;;;;;;5047792;28;20037;-88
2022/06/20 03:54:52;;;;;;;18.17;11.25;;;18.90;74.40;;;;;;5054977;28;20021;-88
2022/06/20 03:57:30;;;;;;;21.17;11.80;;;18.90;73.90;;;;;;5035739;28;20041;-89
2022/06/20 04:00:10;;;;;;;19.65;11.65;;;19.00;74.00;;;;;;5054885;28;20036;-88
2022/06/20 04:02:50;;;;;;;;;;;19.00;73.90;;;;;;5055798;28;20029;-89
2022/06/20 04:05:47;;;;;;;;;;;;;;;;;;;;;
2022/06/20 04:11:38;;;;;;;15.10;10.68;;;19.00;74.40;;;;;;5037540;28;20048;-88
2022/06/20 04:14:20;;;;;;;20.27;12.15;;;19.00;74.40;;;;;;5035242;28;20034;-88
2022/06/20 04:19:53;;;;;;;23.23;12.15;;;19.00;74.40;;;;;;5024655;28;20101;-89
2022/06/20 04:22:29;;;;;;;18.95;11.63;;;19.10;74.50;;;;;;5035687;28;20030;-87
2022/06/20 04:25:11;;;;;;;20.42;12.05;;;19.10;74.20;;;;;;5036955;28;20048;-88
2022/06/20 04:27:46;;;;;;;20.20;11.70;;;19.10;74.40;;;;;;5036768;28;20103;-89
2022/06/20 04:30:36;;;;;;;21.98;11.80;;;19.10;74.40;;;;;;5035147;28;20690;-88
2022/06/20 04:33:11;;;;;;;21.42;11.40;;;19.10;74.80;;;;;;5035375;28;20029;-88
2022/06/20 04:35:43;;;;;;;19.05;12.15;;;19.20;74.80;;;;;;5035437;28;20040;-88
2022/06/20 04:38:26;;;;;;;26.98;13.27;;;19.20;74.40;;;;;;5036422;28;20044;-87
2022/06/20 04:41:05;;;;;;;20.30;11.98;;;19.20;74.70;;;;;;5035314;28;20049;-87
2022/06/20 04:43:40;;;;;;;21.02;12.82;;;19.20;75.10;;;;;;5036496;28;20052;-90
2022/06/20 04:46:17;;;;;;;19.50;11.50;;;19.30;74.80;;;;;;5036380;28;20029;-88
2022/06/20 04:48:46;;;;;;;20.30;11.38;;;19.30;74.20;;;;;;5036238;28;20064;-85
2022/06/20 04:51:17;;;;;;;21.02;12.57;;;19.30;74.50;;;;;;5035938;28;20026;-85
2022/06/20 04:53:45;;;;;;;20.55;11.32;;;19.30;74.30;;;;;;5036066;28;20484;-85
2022/06/20 04:56:14;;;;;;;18.75;11.68;;;19.40;74.40;;;;;;5035970;28;20041;-89
2022/06/20 04:58:58;;;;;;;16.80;11.40;;;19.40;74.40;;;;;;5041678;28;20018;-87
2022/06/20 05:01:26;;;;;;;18.00;11.80;;;19.40;74.70;;;;;;5036703;28;20522;-90
2022/06/20 05:04:07;;;;;;;18.67;11.02;;;19.40;74.70;;;;;;5034767;28;20113;-90
2022/06/20 05:06:36;;;;;;;14.27;10.63;;;19.40;74.90;;;;;;5037013;28;20031;-90
2022/06/20 05:09:21;;;;;;;20.60;11.98;;;19.60;74.50;;;;;;5039135;28;20033;-87
2022/06/20 05:12:09;;;;;;;17.58;11.02;;;19.70;74.60;;;;;;5040079;28;20025;-81
2022/06/20 05:15:09;;;;;;;21.00;11.43;;;19.80;73.60;;;;;;5045958;28;20112;-87
2022/06/20 05:17:40;;;;;;;18.33;11.48;;;19.80;74.20;;;;;;5042916;28;20040;-90
2022/06/20 05:20:21;;;;;;;17.10;10.25;;;19.80;74.30;;;;;;5041503;28;20025;-85
2022/06/20 05:22:56;;;;;;;17.77;10.38;;;19.90;73.90;;;;;;5053796;28;20025;-82
2022/06/20 05:25:25;;;;;;;17.02;10.60;;;19.90;73.80;;;;;;5034192;28;20081;-86
2022/06/20 05:27:57;;;;;;;20.23;11.02;;;19.90;74.10;;;;;;5036195;28;20048;-86
2022/06/20 05:30:33;;;;;;;18.38;10.32;;;19.90;74.10;;;;;;5050497;28;20075;-85
2022/06/20 05:33:35;;;;;;;17.55;11.15;;;19.90;73.60;;;;;;5049473;28;20062;-82
2022/06/20 05:36:18;;;;;;;15.07;10.50;;;19.90;74.00;;;;;;5054755;28;20108;-82
2022/06/20 05:38:56;;;;;;;17.88;11.07;;;19.90;74.30;;;;;;5033815;28;20087;-82
2022/06/20 05:41:22;;;;;;;16.30;10.57;;;19.90;74.20;;;;;;5034044;28;20025;-83
2022/06/20 05:43:48;;;;;;;18.02;11.00;;;20.00;74.20;;;;;;5035070;28;20484;-82
2022/06/20 05:46:21;;;;;;;19.27;11.05;;;20.00;74.20;;;;;;5040819;28;20179;-82
2022/06/20 05:48:51;;;;;;;23.23;11.32;;;20.00;74.20;;;;;;5053217;28;20395;-82
2022/06/20 05:51:21;;;;;;;19.83;11.90;;;20.00;75.10;;;;;;5053285;28;20075;-81
2022/06/20 05:53:55;;;;;;;19.38;12.07;;;20.00;73.90;;;;;;5052476;28;20084;-83
2022/06/20 05:56:31;;;;;;;17.27;10.82;;;20.00;74.50;;;;;;5041232;28;20053;-84
2022/06/20 05:58:58;;;;;;;22.73;11.77;;;20.10;74.40;;;;;;5042373;28;20441;-83
2022/06/20 06:01:34;;;;;;;19.98;10.93;;;20.10;74.50;;;;;;5046563;28;20115;-80
2022/06/20 06:04:10;;;;;;;19.85;11.23;;;20.10;74.80;;;;;;5048467;28;20032;-84
2022/06/20 06:06:48;;;;;;;21.00;10.82;;;20.00;74.70;;;;;;5040949;28;20049;-83
2022/06/20 06:09:28;;;;;;;21.42;12.45;;;20.00;74.70;;;;;;5049644;28;20036;-83
2022/06/20 06:12:03;;;;;;;19.83;11.02;;;20.10;74.50;;;;;;5048827;28;20418;-83
2022/06/20 06:14:39;;;;;;;17.75;10.98;;;20.20;74.70;;;;;;5049283;28;20746;-85
2022/06/20 06:17:12;;;;;;;17.02;11.60;;;20.20;74.90;;;;;;5053771;28;20029;-85
2022/06/20 06:19:57;;;;;;;19.75;11.82;;;20.30;74.70;;;;;;5051082;28;20021;-85
2022/06/20 06:22:32;;;;;;;18.52;12.63;;;20.30;74.40;;;;;;5052937;28;20053;-85
2022/06/20 06:25:28;;;;;;;22.73;11.50;;;20.30;74.10;;;;;;5052182;28;20089;-85
2022/06/20 06:27:58;;;;;;;17.75;10.75;;;20.30;73.70;;;;;;5052237;28;20033;-85
2022/06/20 06:30:28;;;;;;;24.67;11.52;;;20.40;74.30;;;;;;5052762;28;20048;-85
2022/06/20 06:33:04;;;;;;;16.70;10.83;;;20.30;74.10;;;;;;5051962;28;20037;-85
2022/06/20 06:35:42;;;;;;;23.33;11.95;;;20.40;74.20;;;;;;5051861;28;20028;-87
2022/06/20 06:38:45;;;;;;;22.83;12.10;;;20.40;74.50;;;;;;5053271;28;20029;-86
2022/06/20 06:41:20;;;;;;;25.40;11.75;;;20.40;74.50;;;;;;5054601;28;20503;-85
2022/06/20 06:43:47;;;;;;;21.45;11.88;;;20.40;74.40;;;;;;5055315;28;20029;-86
2022/06/20 06:46:18;;;;;;;22.98;12.68;;;20.40;74.50;;;;;;5057397;28;20376;-86
2022/06/20 06:48:43;;;;;;;19.98;12.30;;;20.40;74.30;;;;;;5053838;28;20442;-87
2022/06/20 06:51:19;;;;;;;23.58;11.80;;;20.40;74.00;;;;;;5056230;28;20043;-87
2022/06/20 06:53:53;;;;;;;19.90;12.68;;;20.50;74.10;;;;;;5054651;28;20048;-86
2022/06/20 06:56:29;;;;;;;24.77;13.43;;;20.60;74.10;;;;;;5051604;28;20507;-87
2022/06/20 06:59:20;;;;;;;22.05;12.75;;;20.60;74.30;;;;;;5055954;28;20025;-86
2022/06/20 07:01:52;;;;;;;23.73;12.68;;;20.60;73.80;;;;;;5056764;28;20052;-87
2022/06/20 07:04:26;;;;;;;22.48;12.15;;;20.80;73.80;;;;;;5056165;28;20120;-86
2022/06/20 07:07:10;;;;;;;24.52;13.10;;;20.80;74.10;;;;;;5056816;28;20198;-86
2022/06/20 07:09:42;;;;;;;23.90;13.20;;;20.80;73.70;;;;;;5039911;28;20120;-86
2022/06/20 07:12:29;;;;;;;23.88;13.15;;;20.80;73.40;;;;;;5052024;28;20108;-86
2022/06/20 07:15:21;;;;;;;21.30;12.63;;;20.80;73.90;;;;;;5050729;28;20103;-86
2022/06/20 07:18:27;;;;;;;26.20;12.30;;;20.90;73.70;;;;;;5041755;28;20063;-86
2022/06/20 07:20:53;;;;;;;26.63;12.18;;;21.00;73.50;;;;;;5037621;28;20029;-85
2022/06/20 07:23:19;;;;;;;20.48;12.13;;;21.30;73.30;;;;;;5038791;28;20022;-88
2022/06/20 07:25:48;;;;;;;26.20;12.32;;;21.30;73.00;;;;;;5045255;28;20109;-87
2022/06/20 07:28:35;;;;;;;24.98;12.40;;;21.50;72.90;;;;;;5047735;28;20049;-86
2022/06/20 07:31:10;;;;;;;28.73;14.65;;;21.50;72.20;;;;;;5047004;28;20033;-88
2022/06/20 07:33:46;;;;;;;26.20;13.88;;;21.50;72.10;;;;;;5046273;28;20030;-87
2022/06/20 07:36:14;;;;;;;22.25;12.93;;;21.60;72.60;;;;;;5043281;28;20021;-86
2022/06/20 07:38:47;;;;;;;25.42;13.43;;;21.80;71.80;;;;;;5045735;28;20044;-87
2022/06/20 07:41:21;;;;;;;21.50;12.20;;;22.80;69.70;;;;;;5037207;28;20088;-88
2022/06/20 07:43:50;;;;;;;23.70;11.75;;;23.60;67.40;;;;;;5043847;28;20066;-87
2022/06/20 07:46:24;;;;;;;18.77;12.20;;;23.90;65.60;;;;;;5043937;28;20035;-90
2022/06/20 07:48:54;;;;;;;24.23;13.25;;;24.80;62.90;;;;;;5041704;28;20029;-89
2022/06/20 07:51:25;;;;;;;19.83;10.82;;;27.40;56.90;;;;;;5041863;28;20021;-90
2022/06/20 07:54:09;;;;;;;19.52;10.98;;;30.00;49.90;;;;;;5045338;28;20031;-89
2022/06/20 07:56:43;;;;;;;17.10;10.70;;;32.30;44.00;;;;;;5046135;28;20056;-89
2022/06/20 07:59:13;;;;;;;17.60;10.35;;;32.90;42.70;;;;;;5044158;28;20025;-89
2022/06/20 08:02:06;;;;;;;18.83;12.27;;;31.10;43.90;;;;;;5058940;28;20021;-89
2022/06/20 08:04:35;;;;;;;20.30;11.38;;;28.90;47.50;;;;;;5045648;28;20033;-87
2022/06/20 08:07:01;;;;;;;20.85;11.10;;;27.60;52.10;;;;;;5045957;28;20090;-88
2022/06/20 08:09:31;;;;;;;14.57;10.75;;;26.80;54.10;;;;;;5043837;28;20029;-88
2022/06/20 08:12:09;;;;;;;22.63;11.73;;;26.50;55.20;;;;;;5044429;28;20033;-88
2022/06/20 08:14:53;;;;;;;24.23;12.55;;;26.30;55.80;;;;;;5044314;28;20044;-88
2022/06/20 08:17:19;;;;;;;19.67;10.85;;;26.50;55.50;;;;;;5046976;28;20506;-89
2022/06/20 08:19:45;;;;;;;19.80;10.88;;;26.50;55.80;;;;;;5044329;28;20120;-88
2022/06/20 08:22:31;;;;;;;15.65;10.75;;;26.70;55.60;;;;;;5044943;28;20030;-88
2022/06/20 08:25:06;;;;;;;17.88;9.93;;;26.60;55.00;;;;;;5045773;28;20108;-88
2022/06/20 08:27:45;;;;;;;18.60;10.13;;;27.50;54.60;;;;;;5046944;28;20094;-89
2022/06/20 08:30:18;;;;;;;15.05;9.75;;;29.70;49.70;;;;;;5044463;28;20051;-90
2022/06/20 08:33:10;;;;;;;19.42;9.57;;;31.10;46.60;;;;;;5050818;28;20033;-89
2022/06/20 08:35:48;;;;;;;14.18;9.88;;;31.30;45.20;;;;;;5056245;28;20021;-89
2022/06/20 08:38:32;;;;;;;19.33;9.82;;;30.00;46.90;;;;;;5044363;28;20152;-89
2022/06/20 08:41:00;;;;;;;15.43;9.43;;;28.80;49.80;;;;;;5036632;28;20025;-89
2022/06/20 08:43:59;;;;;;;16.30;10.13;;;28.00;51.70;;;;;;5035230;28;20025;-89
2022/06/20 08:46:40;;;;;;;18.75;9.40;;;27.50;53.30;;;;;;5023374;28;20033;-88
2022/06/20 08:49:18;;;;;;;16.67;9.57;;;27.10;54.10;;;;;;5034414;28;20044;-87
2022/06/20 08:52:08;;;;;;;18.17;10.77;;;26.70;55.50;;;;;;5036300;28;20439;-89
2022/06/20 08:54:55;;;;;;;17.38;9.95;;;26.30;56.30;;;;;;5034747;28;20034;-86
2022/06/20 08:57:55;;;;;;;18.40;10.43;;;26.00;57.10;;;;;;5037005;28;20049;-90
2022/06/20 09:01:02;;;;;;;16.35;11.07;;;26.00;57.70;;;;;;5034466;28;20120;-88
2022/06/20 09:03:34;;;;;;;17.30;10.13;;;25.90;57.90;;;;;;5031393;28;20056;-88
2022/06/20 09:06:44;;;;;;;18.65;10.35;;;25.80;57.50;;;;;;5044485;28;20025;-88
2022/06/20 09:09:23;;;;;;;16.10;10.45;;;25.70;58.20;;;;;;5040171;28;20024;-88
2022/06/20 09:12:07;;;;;;;17.90;11.27;;;25.40;58.40;;;;;;5043462;28;20022;-88
2022/06/20 09:14:52;;;;;;;18.83;12.63;;;25.30;58.80;;;;;;5035659;28;20017;-87
2022/06/20 09:17:42;;;;;;;17.35;11.98;;;25.20;59.20;;;;;;5041709;28;20025;-87
2022/06/20 09:20:19;;;;;;;18.90;11.63;;;25.30;58.90;;;;;;5034459;28;20022;-87
2022/06/20 09:23:26;;;;;;;20.27;11.65;;;25.70;58.10;;;;;;5032895;28;20108;-88
2022/06/20 09:25:55;;;;;;;20.45;11.73;;;26.50;55.70;;;;;;5033452;28;20022;-88
2022/06/20 09:28:44;;;;;;;18.38;10.82;;;26.30;55.30;;;;;;5048962;28;20029;-88
2022/06/20 09:31:48;;;;;;;20.40;12.38;;;26.10;56.00;;;;;;5061665;28;20029;-88
2022/06/20 09:34:25;;;;;;;20.90;11.02;;;26.00;56.10;;;;;;5043952;28;20109;-88
2022/06/20 09:36:51;;;;;;;23.42;11.63;;;26.20;55.80;;;;;;5054525;28;20044;-88
2022/06/20 09:39:40;;;;;;;21.17;11.40;;;26.30;55.00;;;;;;5055219;28;20024;-88
2022/06/20 09:42:22;;;;;;;18.57;10.80;;;26.90;54.20;;;;;;5047699;28;20032;-89
2022/06/20 09:45:03;;;;;;;17.95;9.02;;;28.40;51.10;;;;;;5036952;28;20032;-89
2022/06/20 09:47:54;;;;;;;14.65;8.60;;;29.70;47.80;;;;;;5053850;28;20551;-89
2022/06/20 09:50:54;;;;;;;16.17;9.10;;;30.00;45.20;;;;;;5043871;28;20020;-90
2022/06/20 09:53:37;;;;;;;19.90;9.25;;;29.60;45.70;;;;;;5074766;28;20111;-88
2022/06/20 09:56:16;;;;;;;15.30;8.52;;;30.30;45.10;;;;;;5075342;28;20079;-88
2022/06/20 09:58:54;;;;;;;18.88;8.82;;;31.00;43.10;;;;;;5064311;28;20129;-86
2022/06/20 10:01:44;;;;;;;15.70;9.10;;;31.80;42.70;;;;;;5053347;28;20480;-87
2022/06/20 10:04:22;;;;;;;16.40;8.20;;;31.50;42.70;;;;;;5059664;28;20507;-87
2022/06/20 10:07:07;;;;;;;16.90;8.65;;;31.00;43.00;;;;;;5072148;28;20052;-87
2022/06/20 10:09:40;;;;;;;16.92;8.68;;;30.30;44.00;;;;;;5073693;28;20043;-88
2022/06/20 10:12:27;;;;;;;13.50;7.20;;;30.80;43.40;;;;;;5051439;28;20447;-88
2022/06/20 10:15:24;;;;;;;15.38;7.90;;;31.00;42.20;;;;;;5053013;28;20036;-89
2022/06/20 10:18:09;;;;;;;17.65;8.45;;;30.50;43.40;;;;;;5055664;28;20033;-88
2022/06/20 10:21:26;;;;;;;12.75;6.75;;;31.00;41.80;;;;;;5054055;28;20033;-87
2022/06/20 10:24:10;;;;;;;13.77;6.72;;;31.40;41.50;;;;;;5059533;28;20040;-85
2022/06/20 10:27:14;;;;;;;13.15;5.80;;;31.70;41.00;;;;;;5060146;28;20025;-86
2022/06/20 10:30:18;;;;;;;13.00;6.97;;;31.40;41.70;;;;;;5035724;28;20391;-87
2022/06/20 10:32:56;;;;;;;15.63;7.20;;;31.70;41.30;;;;;;5056265;28;20029;-87
2022/06/20 10:35:24;;;;;;;14.63;7.40;;;31.80;40.40;;;;;;5037655;28;20033;-87
2022/06/20 10:38:43;;;;;;;10.27;6.75;;;31.60;40.80;;;;;;5047953;28;20174;-88
2022/06/20 10:41:39;;;;;;;9.35;6.32;;;31.50;40.40;;;;;;5005146;28;20549;-85
2022/06/20 10:44:23;;;;;;;17.73;7.07;;;31.30;41.20;;;;;;4994881;28;20022;-87
2022/06/20 10:47:03;;;;;;;13.10;5.97;;;30.80;41.70;;;;;;4978312;28;20046;-82
2022/06/20 10:49:31;;;;;;;10.35;6.57;;;30.40;42.60;;;;;;4983679;28;20413;-91
2022/06/20 10:52:07;;;;;;;10.30;5.93;;;30.30;43.60;;;;;;5010500;28;20034;-92
2022/06/20 10:54:52;;;;;;;7.03;5.00;;;30.10;44.80;;;;;;4998088;28;20038;-88
2022/06/20 10:57:55;;;;;;;10.60;5.85;;;30.00;45.30;;;;;;4998773;28;20038;-92
2022/06/20 11:00:25;;;;;;;15.20;6.63;;;29.60;44.90;;;;;;4979289;28;20027;-87
2022/06/20 11:03:28;;;;;;;11.43;7.03;;;29.30;45.40;;;;;;4994871;28;20025;-91
2022/06/20 11:06:22;;;;;;;8.55;5.47;;;29.30;46.10;;;;;;4998038;28;20034;-82
2022/06/20 11:09:24;;;;;;;10.07;6.80;;;29.00;45.90;;;;;;4989873;28;20023;-89
2022/06/20 11:12:05;;;;;;;10.35;6.07;;;28.70;46.20;;;;;;5018178;28;20043;-88
2022/06/20 11:14:49;;;;;;;12.00;6.80;;;28.70;47.40;;;;;;4993886;28;20109;-85
2022/06/20 11:17:18;;;;;;;12.55;6.10;;;28.70;47.40;;;;;;4991434;28;20045;-86
2022/06/20 11:20:22;;;;;;;9.15;6.13;;;28.70;47.30;;;;;;4983473;28;20034;-83
2022/06/20 11:23:09;;;;;;;10.30;5.82;;;28.80;47.80;;;;;;4984601;28;20027;-88
2022/06/20 11:25:56;;;;;;;13.00;6.45;;;28.80;47.50;;;;;;4988493;28;20018;-86
2022/06/20 11:28:59;;;;;;;10.68;6.57;;;28.60;47.30;;;;;;4985037;28;20061;-86
2022/06/20 11:31:50;;;;;;;11.77;5.90;;;28.60;47.70;;;;;;5004041;28;20114;-92
2022/06/20 11:34:43;;;;;;;11.43;6.15;;;28.60;47.60;;;;;;4992983;28;20045;-80
2022/06/20 11:37:25;;;;;;;9.68;5.72;;;28.60;48.20;;;;;;4985244;28;20101;-83
2022/06/20 11:40:02;;;;;;;7.90;5.72;;;28.60;47.20;;;;;;4988996;28;20531;-81
2022/06/20 11:42:35;;;;;;;8.55;5.10;;;28.60;47.80;;;;;;4985416;28;20030;-82
2022/06/20 11:45:21;;;;;;;8.18;5.88;;;28.80;48.00;;;;;;4987153;28;20023;-82
2022/06/20 11:48:16;;;;;;;10.85;5.95;;;28.60;47.50;;;;;;4987447;28;20038;-82
2022/06/20 11:50:51;;;;;;;8.85;5.00;;;28.80;47.40;;;;;;4983179;28;20031;-82
2022/06/20 11:53:42;;;;;;;10.27;5.75;;;28.80;48.10;;;;;;4989163;28;20042;-82
2022/06/20 11:56:34;;;;;;;8.18;5.07;;;29.20;47.90;;;;;;4987801;28;20120;-82
2022/06/20 11:59:26;;;;;;;15.35;7.00;;;29.20;46.60;;;;;;4987833;28;20042;-82
2022/06/20 12:02:20;;;;;;;10.00;6.30;;;29.10;47.30;;;;;;4990739;28;20118;-83
2022/06/20 12:04:56;;;;;;;53.38;9.70;;;29.20;46.80;;;;;;4985878;28;20817;-82
2022/06/20 12:07:44;;;;;;;18.90;6.82;;;28.90;47.00;;;;;;4987351;28;20018;-82
2022/06/20 12:10:54;;;;;;;12.20;7.80;;;28.70;46.60;;;;;;4987327;28;20077;-82
2022/06/20 12:13:25;;;;;;;11.52;5.90;;;28.60;47.40;;;;;;4985258;28;20481;-83
2022/06/20 12:16:21;;;;;;;10.95;6.20;;;28.80;47.10;;;;;;4984801;28;20531;-82
2022/06/20 12:24:21;;;;;;;19.05;6.82;;;28.80;46.90;;;;;;4993915;28;20030;-93
2022/06/20 12:26:49;;;;;;;14.18;6.00;;;28.60;47.20;;;;;;4991843;28;20033;-93
2022/06/20 12:29:19;;;;;;;21.15;8.27;;;28.70;47.30;;;;;;5011641;28;20064;-91
2022/06/20 12:31:48;;;;;;;14.70;6.25;;;28.60;47.00;;;;;;4997847;28;20018;-91
2022/06/20 12:34:19;;;;;;;9.95;5.55;;;28.70;47.30;;;;;;4990106;28;20046;-92
2022/06/20 12:36:54;;;;;;;10.35;6.07;;;28.90;48.10;;;;;;4986225;28;20034;-94
2022/06/20 12:39:31;;;;;;;8.75;5.32;;;29.10;46.70;;;;;;4984298;28;20031;-94
2022/06/20 12:42:11;;;;;;;9.50;5.40;;;28.90;47.30;;;;;;4985531;28;20094;-92
2022/06/20 12:44:48;;;;;;;9.85;5.88;;;29.00;46.90;;;;;;4984800;28;20027;-89
2022/06/20 12:47:37;;;;;;;8.13;5.30;;;28.90;46.40;;;;;;4987200;28;20389;-85
2022/06/20 12:50:22;;;;;;;7.07;5.28;;;28.80;47.10;;;;;;4987880;28;20574;-90
2022/06/20 12:52:56;;;;;;;6.68;5.40;;;28.80;45.70;;;;;;4986311;28;20108;-86
2022/06/20 12:55:31;;;;;;;8.05;5.15;;;28.90;46.50;;;;;;4989420;28;20031;-86
2022/06/20 12:58:46;;;;;;;8.45;5.43;;;28.90;46.50;;;;;;4985790;28;20628;-83
2022/06/20 13:01:28;;;;;;;9.70;5.97;;;29.30;46.40;;;;;;4986970;28;20440;-87
2022/06/20 13:04:15;;;;;;;77.18;10.93;;;29.20;46.70;;;;;;4980299;28;21841;-87
2022/06/20 13:07:01;;;;;;;9.00;5.18;;;28.90;47.20;;;;;;4983268;28;20457;-88
2022/06/20 13:10:02;;;;;;;9.95;5.30;;;28.80;46.80;;;;;;4990845;28;20034;-88
2022/06/20 13:12:44;;;;;;;11.15;5.60;;;28.80;46.20;;;;;;4984344;28;20031;-87
2022/06/20 13:15:39;;;;;;;5.95;5.20;;;29.00;46.40;;;;;;4985488;28;20030;-86
2022/06/20 13:18:39;;;;;;;10.18;5.40;;;29.00;45.90;;;;;;4983982;28;20026;-84
2022/06/20 13:21:18;;;;;;;18.45;6.57;;;28.90;46.20;;;;;;5000151;28;20059;-88
2022/06/20 13:24:26;;;;;;;13.20;6.18;;;28.90;46.70;;;;;;4987302;28;20477;-87
2022/06/20 13:27:11;;;;;;;8.38;5.15;;;28.80;47.60;;;;;;4983068;28;20046;-85
2022/06/20 13:29:55;;;;;;;6.80;5.03;;;28.80;47.30;;;;;;4986633;28;20060;-87
2022/06/20 13:32:35;;;;;;;8.50;4.82;;;28.90;47.60;;;;;;4986630;28;20477;-86
2022/06/20 13:35:31;;;;;;;8.73;6.07;;;29.00;46.30;;;;;;4985857;28;20033;-83
2022/06/20 13:38:00;;;;;;;6.15;4.65;;;29.00;46.50;;;;;;4986142;28;20110;-83
2022/06/20 13:40:38;;;;;;;8.65;4.35;;;29.20;48.80;;;;;;4985955;28;20156;-83
2022/06/20 13:43:18;;;;;;;7.40;4.80;;;29.00;46.50;;;;;;4986694;28;20035;-86
2022/06/20 13:45:46;;;;;;;;;;;29.10;46.00;;;;;;4996179;28;20030;-84
2022/06/20 13:48:16;;;;;;;5.97;4.68;;;29.20;44.90;;;;;;4995622;28;19945;-84
2022/06/20 13:51:07;;;;;;;11.10;4.55;;;29.20;45.60;;;;;;4983366;28;20030;-84